createdAt,value
2019-05-18T00:01:36.166Z,14.50
2019-05-18T00:04:06.245Z,14.30
2019-05-18T00:06:36.143Z,14.60
2019-05-18T00:09:07.334Z,14.03
2019-05-18T00:11:37.425Z,14.60
2019-05-18T00:14:07.437Z,15.33
2019-05-18T00:16:37.331Z,15.13
2019-05-18T00:19:07.130Z,13.33
2019-05-18T00:21:37.014Z,13.67
2019-05-18T00:24:06.835Z,13.60
2019-05-18T00:26:37.068Z,15.10
2019-05-18T00:29:06.972Z,14.30
2019-05-18T00:31:36.805Z,15.57
2019-05-18T00:34:06.640Z,16.47
2019-05-18T00:36:36.553Z,15.73
2019-05-18T00:39:08.767Z,14.60
2019-05-18T00:41:38.838Z,16.13
2019-05-18T00:44:08.663Z,15.73
2019-05-18T00:46:38.567Z,15.07
2019-05-18T00:49:08.488Z,15.80
2019-05-18T00:51:38.413Z,16.83
2019-05-18T00:54:08.535Z,16.77
2019-05-18T00:56:38.542Z,16.87
2019-05-18T00:59:08.454Z,15.30
2019-05-18T01:01:38.320Z,15.93
2019-05-18T01:04:08.134Z,17.40
2019-05-18T01:06:37.977Z,17.20
2019-05-18T01:09:08.352Z,18.00
2019-05-18T01:11:38.369Z,17.40
2019-05-18T01:14:08.441Z,16.70
2019-05-18T01:16:38.409Z,16.90
2019-05-18T01:19:08.246Z,17.53
2019-05-18T01:21:38.135Z,17.73
2019-05-18T01:24:08.052Z,16.60
2019-05-18T01:26:37.897Z,16.53
2019-05-18T01:29:09.460Z,16.30
2019-05-18T01:31:39.344Z,16.87
2019-05-18T01:34:09.183Z,18.00
2019-05-18T01:36:39.023Z,17.57
2019-05-18T01:39:09.067Z,18.70
2019-05-18T01:41:39.103Z,20.03
2019-05-18T01:44:08.921Z,18.60
2019-05-18T01:46:38.760Z,18.53
2019-05-18T01:49:08.595Z,17.27
2019-05-18T01:51:38.446Z,18.53
2019-05-18T01:54:08.224Z,20.33
2019-05-18T01:56:38.085Z,19.70
2019-05-18T01:59:07.920Z,19.70
2019-05-18T02:01:37.772Z,19.53
2019-05-18T02:04:07.624Z,19.50
2019-05-18T02:06:37.483Z,17.83
2019-05-18T02:09:09.708Z,19.77
2019-05-18T02:11:39.510Z,19.87
2019-05-18T02:14:09.328Z,19.73
2019-05-18T02:16:39.172Z,19.67
2019-05-18T02:19:09.083Z,19.80
2019-05-18T02:21:39.032Z,19.47
2019-05-18T02:24:08.896Z,21.40
2019-05-18T02:26:38.906Z,19.87
2019-05-18T02:29:08.761Z,19.30
2019-05-18T02:31:38.607Z,19.37
2019-05-18T02:34:08.411Z,21.67
2019-05-18T02:36:38.228Z,19.77
2019-05-18T02:39:09.173Z,20.57
2019-05-18T02:41:39.145Z,19.10
2019-05-18T02:44:09.429Z,20.87
2019-05-18T02:46:39.238Z,20.53
2019-05-18T02:49:09.040Z,20.20
2019-05-18T02:51:38.865Z,21.20
2019-05-18T02:54:08.665Z,20.43
2019-05-18T02:56:38.595Z,21.23
2019-05-18T02:59:08.422Z,19.50
2019-05-18T03:01:38.304Z,21.50
2019-05-18T03:04:08.113Z,20.67
2019-05-18T03:06:38.059Z,20.17
2019-05-18T03:09:08.203Z,21.50
2019-05-18T03:11:38.006Z,21.13
2019-05-18T03:14:08.014Z,20.40
2019-05-18T03:16:37.978Z,19.60
2019-05-18T03:19:09.149Z,21.00
2019-05-18T03:21:39.438Z,20.20
2019-05-18T03:24:09.381Z,22.60
2019-05-18T03:26:39.217Z,23.63
2019-05-18T03:29:09.238Z,23.90
2019-05-18T03:31:39.069Z,23.37
2019-05-18T03:34:08.916Z,25.13
2019-05-18T03:36:38.717Z,23.23
2019-05-18T03:39:08.646Z,22.83
2019-05-18T03:41:38.431Z,22.80
2019-05-18T03:44:08.354Z,23.47
2019-05-18T03:46:38.284Z,24.40
2019-05-18T03:49:25.414Z,23.97
2019-05-18T03:51:39.564Z,24.90
2019-05-18T03:54:09.715Z,24.93
2019-05-18T03:56:39.513Z,24.57
2019-05-18T03:59:09.501Z,26.37
2019-05-18T04:01:39.270Z,23.97
2019-05-18T04:04:09.257Z,23.40
2019-05-18T04:06:39.189Z,25.70
2019-05-18T04:09:09.044Z,25.97
2019-05-18T04:11:38.932Z,24.00
2019-05-18T04:14:09.062Z,24.53
2019-05-18T04:16:39.181Z,24.97
2019-05-18T04:19:09.020Z,26.13
2019-05-18T04:21:38.947Z,25.20
2019-05-18T04:24:08.782Z,24.83
2019-05-18T04:26:38.604Z,25.63
2019-05-18T04:29:08.419Z,26.67
2019-05-18T04:31:38.226Z,25.20
2019-05-18T04:34:08.043Z,25.27
2019-05-18T04:36:37.810Z,29.07
2019-05-18T04:39:07.934Z,28.10
2019-05-18T04:41:37.750Z,31.00
2019-05-18T04:44:07.953Z,28.83
2019-05-18T04:46:37.829Z,28.13
2019-05-18T04:49:07.668Z,25.97
2019-05-18T04:51:37.660Z,29.50
2019-05-18T04:54:07.473Z,27.83
2019-05-18T04:56:37.260Z,29.97
2019-05-18T04:59:07.353Z,30.00
2019-05-18T05:01:37.194Z,28.53
2019-05-18T05:04:07.064Z,28.13
2019-05-18T05:06:36.841Z,27.43
2019-05-18T05:09:08.758Z,27.90
2019-05-18T05:11:38.616Z,26.30
2019-05-18T05:14:08.692Z,26.70
2019-05-18T05:16:38.555Z,24.50
2019-05-18T05:19:08.937Z,25.63
2019-05-18T05:21:38.993Z,25.77
2019-05-18T05:24:08.954Z,26.03
2019-05-18T05:26:39.609Z,22.37
2019-05-18T05:29:09.872Z,24.47
2019-05-18T05:31:39.760Z,23.37
2019-05-18T05:34:09.699Z,22.50
2019-05-18T05:36:39.532Z,24.67
2019-05-18T05:39:09.397Z,24.33
2019-05-18T05:41:39.278Z,23.57
2019-05-18T05:44:09.266Z,23.03
2019-05-18T05:46:39.253Z,23.53
2019-05-18T05:49:09.735Z,23.43
2019-05-18T05:51:40.938Z,21.67
2019-05-18T05:54:10.912Z,23.13
2019-05-18T05:56:40.731Z,21.30
2019-05-18T05:59:10.682Z,21.10
2019-05-18T06:01:40.483Z,22.10
2019-05-18T06:04:10.472Z,23.30
2019-05-18T06:06:40.300Z,20.33
2019-05-18T06:09:10.483Z,21.90
2019-05-18T06:11:40.435Z,20.20
2019-05-18T06:14:10.301Z,21.80
2019-05-18T06:16:41.539Z,20.27
2019-05-18T06:19:11.610Z,19.33
2019-05-18T06:21:41.700Z,21.47
2019-05-18T06:24:11.695Z,18.63
2019-05-18T06:26:42.187Z,20.03
2019-05-18T06:29:12.395Z,19.67
2019-05-18T06:31:42.573Z,19.27
2019-05-18T06:34:12.514Z,19.83
2019-05-18T06:36:42.476Z,16.07
2019-05-18T06:39:12.638Z,17.63
2019-05-18T06:41:42.633Z,16.67
2019-05-18T06:44:12.528Z,16.67
2019-05-18T06:46:42.495Z,15.87
2019-05-18T06:49:12.617Z,15.53
2019-05-18T06:51:42.958Z,14.47
2019-05-18T06:54:12.978Z,14.90
2019-05-18T06:56:45.958Z,16.23
2019-05-18T06:59:17.198Z,15.67
2019-05-18T07:01:47.525Z,13.40
2019-05-18T07:04:17.710Z,12.63
2019-05-18T07:06:47.577Z,13.53
2019-05-18T07:09:17.549Z,11.77
2019-05-18T07:11:47.440Z,11.53
2019-05-18T07:14:25.303Z,10.07
2019-05-18T07:16:49.019Z,9.13
2019-05-18T07:19:18.805Z,9.83
2019-05-18T07:21:48.707Z,10.43
2019-05-18T07:24:19.435Z,10.57
2019-05-18T07:26:49.612Z,10.50
2019-05-18T07:29:19.498Z,10.00
2019-05-18T07:31:49.426Z,9.87
2019-05-18T07:34:19.469Z,9.33
2019-05-18T07:36:49.431Z,8.43
2019-05-18T07:39:19.266Z,9.60
2019-05-18T07:41:49.210Z,9.53
2019-05-18T07:44:19.141Z,9.60
2019-05-18T07:46:49.090Z,9.10
2019-05-18T07:49:18.971Z,8.60
2019-05-18T07:51:48.867Z,8.50
2019-05-18T07:54:19.002Z,8.00
2019-05-18T07:56:48.954Z,7.77
2019-05-18T07:59:19.919Z,6.77
2019-05-18T08:01:50.077Z,6.70
2019-05-18T08:04:20.082Z,6.70
2019-05-18T08:06:50.093Z,7.47
2019-05-18T08:09:20.087Z,5.37
2019-05-18T08:11:50.047Z,7.33
2019-05-18T08:14:19.980Z,7.67
2019-05-18T08:16:49.898Z,6.90
2019-05-18T08:19:19.847Z,6.83
2019-05-18T08:21:53.175Z,7.03
2019-05-18T08:24:21.461Z,5.57
2019-05-18T08:26:51.296Z,6.30
2019-05-18T08:29:21.238Z,7.07
2019-05-18T08:31:51.115Z,6.37
2019-05-18T08:34:21.087Z,5.80
2019-05-18T08:36:50.925Z,5.70
2019-05-18T08:39:20.849Z,6.93
2019-05-18T08:41:50.876Z,6.27
2019-05-18T08:44:20.737Z,5.90
2019-05-18T08:46:50.617Z,6.60
2019-05-18T08:49:20.567Z,6.47
2019-05-18T08:51:50.471Z,5.90
2019-05-18T08:54:20.326Z,5.50
2019-05-18T08:56:50.165Z,6.80
2019-05-18T08:59:20.129Z,6.90
2019-05-18T09:01:49.980Z,7.33
2019-05-18T09:04:19.889Z,6.63
2019-05-18T09:06:49.702Z,6.13
2019-05-18T09:09:19.662Z,5.77
2019-05-18T09:11:49.594Z,5.90
2019-05-18T09:14:19.455Z,6.27
2019-05-18T09:16:49.710Z,6.50
2019-05-18T09:19:19.726Z,5.77
2019-05-18T09:21:49.691Z,6.40
2019-05-18T09:24:19.557Z,6.23
2019-05-18T09:26:49.434Z,6.40
2019-05-18T09:29:19.338Z,5.80
2019-05-18T09:31:49.414Z,5.00
2019-05-18T09:34:19.343Z,6.00
2019-05-18T09:36:49.176Z,4.63
2019-05-18T09:39:19.723Z,4.83
2019-05-18T09:41:49.592Z,4.83
2019-05-18T09:44:19.427Z,4.77
2019-05-18T09:46:49.244Z,4.50
2019-05-18T09:49:19.077Z,5.40
2019-05-18T09:51:48.940Z,4.40
2019-05-18T09:54:18.801Z,4.87
2019-05-18T09:56:51.565Z,4.93
2019-05-18T09:59:21.459Z,5.30
2019-05-18T10:01:51.316Z,4.63
2019-05-18T10:04:21.275Z,5.17
2019-05-18T10:06:51.107Z,5.20
2019-05-18T10:09:21.027Z,5.60
2019-05-18T10:11:50.990Z,5.87
2019-05-18T10:14:20.984Z,5.93
2019-05-18T10:16:57.063Z,6.53
2019-05-18T10:19:30.300Z,7.10
2019-05-18T10:22:02.844Z,7.20
2019-05-18T10:24:34.096Z,6.10
2019-05-18T10:27:09.614Z,6.87
2019-05-18T10:29:46.698Z,6.60
2019-05-18T10:32:17.245Z,7.30
2019-05-18T10:34:48.592Z,6.90
2019-05-18T10:37:20.508Z,7.03
2019-05-18T10:39:56.200Z,6.30
2019-05-18T10:42:26.667Z,6.50
2019-05-18T10:45:00.750Z,6.40
2019-05-18T10:47:38.479Z,6.00
2019-05-18T10:50:13.601Z,6.60
2019-05-18T10:52:44.535Z,5.60
2019-05-18T10:55:22.028Z,5.47
2019-05-18T10:57:54.153Z,5.13
2019-05-18T11:00:26.566Z,4.97
2019-05-18T11:02:57.058Z,5.27
2019-05-18T11:05:32.706Z,4.20
2019-05-18T11:08:07.433Z,3.33
2019-05-18T11:10:39.154Z,3.33
2019-05-18T11:13:10.493Z,3.83
2019-05-18T11:15:40.429Z,3.73
2019-05-18T11:18:10.546Z,2.83
2019-05-18T11:20:47.556Z,4.03
2019-05-18T11:23:19.818Z,3.60
2019-05-18T11:25:49.873Z,3.67
2019-05-18T11:28:20.083Z,4.10
2019-05-18T11:30:51.024Z,4.07
2019-05-18T11:33:24.250Z,3.33
2019-05-18T11:35:54.311Z,3.40
2019-05-18T11:38:24.166Z,4.00
2019-05-18T11:40:54.054Z,4.10
2019-05-18T11:43:23.936Z,3.67
2019-05-18T11:45:53.853Z,4.37
2019-05-18T11:48:23.776Z,4.27
2019-05-18T11:50:53.937Z,4.27
2019-05-18T11:53:25.869Z,4.30
2019-05-18T11:55:55.832Z,4.07
2019-05-18T11:58:25.654Z,4.67
2019-05-18T12:00:55.731Z,4.13
2019-05-18T12:03:25.897Z,4.70
2019-05-18T12:05:55.811Z,4.70
2019-05-18T12:08:25.983Z,4.37
2019-05-18T12:10:58.732Z,4.73
2019-05-18T12:13:28.810Z,4.37
2019-05-18T12:15:58.655Z,4.63
2019-05-18T12:18:28.555Z,4.50
2019-05-18T12:20:58.829Z,4.00
2019-05-18T12:23:29.086Z,4.20
2019-05-18T12:25:58.984Z,4.40
2019-05-18T12:28:31.397Z,4.37
2019-05-18T12:31:02.139Z,4.30
2019-05-18T12:33:32.514Z,3.60
2019-05-18T12:36:02.406Z,4.10
2019-05-18T12:38:32.364Z,4.30
2019-05-18T12:41:02.323Z,3.63
2019-05-18T12:43:32.511Z,3.80
2019-05-18T12:46:02.554Z,3.47
2019-05-18T12:48:32.350Z,3.33
2019-05-18T12:51:02.185Z,3.63
2019-05-18T12:53:32.043Z,3.47
2019-05-18T12:56:01.914Z,3.50
2019-05-18T12:58:31.725Z,3.50
2019-05-18T13:01:01.825Z,2.77
2019-05-18T13:03:31.724Z,3.53
2019-05-18T13:06:01.886Z,2.73
2019-05-18T13:08:31.726Z,3.20
2019-05-18T13:11:01.828Z,3.87
2019-05-18T13:13:31.668Z,3.30
2019-05-18T13:16:01.529Z,2.60
2019-05-18T13:18:31.642Z,3.13
2019-05-18T13:21:01.882Z,3.20
2019-05-18T13:23:36.078Z,2.67
2019-05-18T13:26:05.977Z,2.60
2019-05-18T13:28:36.092Z,2.50
2019-05-18T13:31:06.045Z,2.70
2019-05-18T13:33:35.920Z,2.57
2019-05-18T13:36:05.933Z,2.40
2019-05-18T13:38:35.775Z,2.58
2019-05-18T13:41:06.939Z,2.30
2019-05-18T13:43:36.940Z,2.40
2019-05-18T13:46:06.791Z,2.50
2019-05-18T13:48:36.679Z,2.20
2019-05-18T13:51:06.758Z,2.67
2019-05-18T13:53:36.667Z,2.17
2019-05-18T13:56:06.746Z,2.20
2019-05-18T13:58:36.577Z,2.10
2019-05-18T14:01:06.778Z,2.37
2019-05-18T14:03:36.687Z,1.82
2019-05-18T14:06:06.871Z,2.50
2019-05-18T14:08:36.678Z,2.30
2019-05-18T14:11:06.683Z,2.10
2019-05-18T14:13:36.741Z,2.47
2019-05-18T14:16:06.699Z,2.17
2019-05-18T14:18:36.630Z,2.05
2019-05-18T14:21:09.359Z,2.17
2019-05-18T14:23:39.328Z,2.30
2019-05-18T14:26:09.191Z,2.37
2019-05-18T14:28:41.864Z,1.77
2019-05-18T14:31:11.931Z,2.00
2019-05-18T14:33:42.005Z,1.90
2019-05-18T14:36:12.032Z,2.37
2019-05-18T14:38:41.894Z,2.30
2019-05-18T14:41:11.792Z,1.83
2019-05-18T14:43:42.053Z,2.25
2019-05-18T14:46:15.426Z,2.10
2019-05-18T14:48:45.210Z,2.07
2019-05-18T14:51:15.211Z,1.90
2019-05-18T14:53:45.205Z,2.13
2019-05-18T14:56:16.839Z,2.27
2019-05-18T14:58:47.154Z,1.93
2019-05-18T15:01:17.158Z,2.00
2019-05-18T15:03:46.980Z,2.85
2019-05-18T15:06:16.934Z,2.40
2019-05-18T15:08:46.878Z,1.93
2019-05-18T15:11:16.748Z,2.00
2019-05-18T15:13:46.732Z,2.03
2019-05-18T15:16:16.611Z,2.20
2019-05-18T15:18:46.468Z,1.93
2019-05-18T15:21:16.672Z,2.60
2019-05-18T15:23:47.146Z,2.00
2019-05-18T15:26:17.079Z,1.87
2019-05-18T15:28:47.110Z,2.53
2019-05-18T15:31:16.948Z,1.60
2019-05-18T15:33:48.958Z,1.63
2019-05-18T15:36:24.048Z,1.90
2019-05-18T15:38:53.978Z,1.97
2019-05-18T15:41:24.108Z,1.97
2019-05-18T15:43:59.648Z,1.77
2019-05-18T15:46:30.058Z,1.90
2019-05-18T15:49:00.011Z,1.70
2019-05-18T15:51:30.121Z,1.80
2019-05-18T15:54:00.091Z,2.10
2019-05-18T15:56:29.925Z,1.70
2019-05-18T15:59:00.566Z,2.10
2019-05-18T16:01:30.511Z,2.63
2019-05-18T16:04:00.744Z,2.43
2019-05-18T16:06:30.939Z,1.70
2019-05-18T16:09:01.047Z,2.07
2019-05-18T16:11:30.908Z,1.90
2019-05-18T16:14:00.762Z,1.77
2019-05-18T16:16:30.626Z,1.90
2019-05-18T16:19:00.524Z,2.00
2019-05-18T16:21:30.553Z,2.07
2019-05-18T16:24:03.076Z,2.17
2019-05-18T16:26:33.873Z,1.90
2019-05-18T16:29:04.063Z,1.63
2019-05-18T16:31:33.925Z,2.80
2019-05-18T16:34:03.827Z,2.10
2019-05-18T16:36:33.747Z,2.20
2019-05-18T16:39:05.057Z,2.00
2019-05-18T16:41:35.248Z,2.17
2019-05-18T16:44:05.324Z,2.10
2019-05-18T16:46:35.188Z,2.17
2019-05-18T16:49:09.869Z,1.90
2019-05-18T16:51:39.762Z,2.30
2019-05-18T16:54:09.724Z,2.00
2019-05-18T16:56:39.714Z,1.97
2019-05-18T16:59:09.681Z,2.00
2019-05-18T17:01:39.670Z,2.27
2019-05-18T17:04:09.600Z,2.33
2019-05-18T17:06:39.629Z,2.10
2019-05-18T17:09:10.033Z,2.07
2019-05-18T17:11:40.122Z,2.30
2019-05-18T17:14:10.196Z,2.40
2019-05-18T17:16:40.015Z,2.43
2019-05-18T17:19:10.197Z,2.20
2019-05-18T17:21:40.179Z,2.27
2019-05-18T17:24:10.124Z,2.40
2019-05-18T17:26:52.290Z,2.47
2019-05-18T17:29:11.560Z,2.57
2019-05-18T17:31:44.262Z,3.20
2019-05-18T17:34:14.235Z,2.40
2019-05-18T17:36:44.155Z,2.23
2019-05-18T17:39:14.015Z,2.53
2019-05-18T17:41:43.930Z,2.70
2019-05-18T17:44:13.851Z,2.30
2019-05-18T17:46:43.702Z,2.90
2019-05-18T17:49:25.879Z,2.60
2019-05-18T17:51:45.439Z,2.70
2019-05-18T17:54:15.393Z,2.50
2019-05-18T17:56:45.409Z,2.50
2019-05-18T17:59:15.567Z,2.83
2019-05-18T18:01:45.444Z,2.20
2019-05-18T18:04:15.486Z,2.37
2019-05-18T18:06:45.614Z,2.33
2019-05-18T18:09:16.186Z,2.87
2019-05-18T18:11:46.123Z,2.50
2019-05-18T18:14:17.717Z,2.97
2019-05-18T18:16:47.705Z,3.30
2019-05-18T18:19:17.819Z,3.00
2019-05-18T18:21:47.803Z,2.87
2019-05-18T18:24:18.051Z,3.03
2019-05-18T18:26:48.091Z,3.27
2019-05-18T18:29:18.039Z,2.60
2019-05-18T18:31:48.168Z,3.07
2019-05-18T18:34:18.245Z,2.97
2019-05-18T18:36:48.565Z,3.20
2019-05-18T18:39:18.617Z,3.20
2019-05-18T18:41:48.780Z,3.40
2019-05-18T18:44:19.322Z,3.37
2019-05-18T18:46:57.503Z,3.50
2019-05-18T18:49:26.548Z,3.57
2019-05-18T18:51:56.790Z,3.33
2019-05-18T18:54:36.089Z,3.90
2019-05-18T18:57:13.743Z,3.63
2019-05-18T18:59:46.928Z,4.03
2019-05-18T19:02:17.285Z,5.27
2019-05-18T19:04:55.750Z,6.17
2019-05-18T19:07:48.730Z,4.57
2019-05-18T19:10:00.816Z,5.07
2019-05-18T19:15:19.855Z,4.73
2019-05-18T19:17:50.459Z,4.00
2019-05-18T19:20:25.981Z,4.03
2019-05-18T19:23:15.850Z,3.90
2019-05-18T19:25:51.629Z,4.20
2019-05-18T19:28:33.381Z,4.47
2019-05-18T19:31:06.569Z,4.33
2019-05-18T19:33:36.850Z,4.60
2019-05-18T19:36:08.078Z,4.53
2019-05-18T19:39:17.648Z,4.53
2019-05-18T19:42:06.818Z,5.10
2019-05-18T19:44:47.164Z,5.10
2019-05-18T19:47:34.731Z,5.07
2019-05-18T19:50:02.252Z,5.13
2019-05-18T19:52:40.216Z,5.03
2019-05-18T19:55:23.682Z,5.57
2019-05-18T19:58:24.216Z,5.43
2019-05-18T20:00:51.886Z,5.87
2019-05-18T20:03:22.517Z,6.63
2019-05-18T20:05:53.492Z,5.40
2019-05-18T20:08:31.192Z,5.10
2019-05-18T20:11:02.421Z,6.03
2019-05-18T20:13:32.784Z,6.43
2019-05-18T20:16:06.606Z,6.13
2019-05-18T20:18:36.853Z,6.33
2019-05-18T20:21:07.948Z,5.70
2019-05-18T20:23:38.261Z,6.57
2019-05-18T20:26:08.436Z,6.13
2019-05-18T20:28:40.652Z,6.47
2019-05-18T20:31:21.620Z,7.47
2019-05-18T20:34:14.759Z,6.70
2019-05-18T20:36:52.483Z,6.97
2019-05-18T20:39:28.739Z,7.10
2019-05-18T20:41:58.801Z,6.30
2019-05-18T20:44:28.719Z,6.30
2019-05-18T20:46:58.694Z,7.30
2019-05-18T20:49:28.546Z,7.47
2019-05-18T20:51:58.817Z,6.70
2019-05-18T20:54:31.819Z,7.13
2019-05-18T20:57:03.681Z,8.17
2019-05-18T20:59:33.633Z,7.00
2019-05-18T21:02:03.979Z,8.00
2019-05-18T21:04:37.752Z,8.00
2019-05-18T21:07:12.335Z,7.63
2019-05-18T21:09:53.241Z,7.23
2019-05-18T21:12:48.859Z,7.90
2019-05-18T21:15:32.978Z,7.37
2019-05-18T21:18:11.459Z,7.83
2019-05-18T21:20:46.505Z,7.23
2019-05-18T21:23:37.114Z,7.03
2019-05-18T21:26:59.422Z,6.60
2019-05-18T21:30:13.048Z,6.83
2019-05-18T21:32:44.557Z,6.70
2019-05-18T21:35:27.188Z,7.20
2019-05-18T21:38:30.429Z,6.77
2019-05-18T21:40:59.575Z,6.10
2019-05-18T21:44:13.910Z,6.87
2019-05-18T21:46:49.245Z,9.33
2019-05-18T21:49:19.109Z,7.33
2019-05-18T21:51:49.341Z,8.03
2019-05-18T21:54:40.098Z,8.47
2019-05-18T21:57:10.230Z,8.60
2019-05-18T21:59:40.127Z,8.73
2019-05-18T22:02:10.299Z,8.50
2019-05-18T22:04:59.271Z,8.47
2019-05-18T22:07:29.174Z,8.57
2019-05-18T22:10:00.479Z,8.57
2019-05-18T22:12:31.493Z,8.00
2019-05-18T22:15:04.304Z,8.30
2019-05-18T22:17:37.815Z,8.90
2019-05-18T22:20:08.528Z,9.70
2019-05-18T22:22:38.915Z,10.83
2019-05-18T22:25:08.827Z,11.33
2019-05-18T22:27:38.718Z,11.30
2019-05-18T22:30:08.663Z,12.40
2019-05-18T22:32:38.504Z,12.77
2019-05-18T22:35:08.736Z,11.90
2019-05-18T22:37:38.786Z,10.57
2019-05-18T22:40:21.029Z,11.63
2019-05-18T22:42:52.343Z,11.40
2019-05-18T22:45:22.326Z,10.77
2019-05-18T22:47:52.831Z,11.80
2019-05-18T22:50:23.029Z,11.90
2019-05-18T22:52:53.324Z,12.80
2019-05-18T22:55:23.256Z,12.17
2019-05-18T22:57:53.287Z,11.57
2019-05-18T23:00:25.098Z,12.67
2019-05-18T23:02:58.706Z,13.33
2019-05-18T23:05:44.241Z,13.27
2019-05-18T23:08:14.494Z,14.83
2019-05-18T23:10:44.656Z,15.87
2019-05-18T23:13:15.125Z,18.97
2019-05-18T23:15:46.919Z,21.37
2019-05-18T23:18:18.642Z,24.87
2019-05-18T23:20:48.569Z,29.13
2019-05-18T23:23:21.517Z,26.67
2019-05-18T23:25:51.381Z,24.83
2019-05-18T23:28:21.958Z,23.33
2019-05-18T23:30:54.508Z,22.43
2019-05-18T23:33:27.281Z,21.83
2019-05-18T23:35:58.096Z,22.97
2019-05-18T23:38:29.695Z,21.10
2019-05-18T23:41:03.250Z,19.80
2019-05-18T23:43:33.911Z,19.73
2019-05-18T23:46:10.940Z,19.27
2019-05-18T23:48:38.522Z,19.13
2019-05-18T23:51:10.559Z,18.57
2019-05-18T23:53:42.818Z,21.17
2019-05-18T23:56:12.617Z,20.20
2019-05-18T23:58:42.459Z,19.60
